Saint Paul, Virginia
Current Conditions -  °F | °C
As of 10:15 PM on Monday 26 Jan 2015 (Local Time) from KLNP Reporting Station
Overcast Overcast  
Wind Chill: 18°   Ceiling: 600
Heat Index: 25°   Visibility: 10mi
Dew Point: 25°   Wind: 6mph
Humidity: 100%   Direction: 290°WNW
Pressure: 29.83"   Gusts: NA
Location:  36.91°N, 82.31°W
Report Text: KLNP 270315Z AUTO 29005KT 10SM OVC006 M04/M04 A2983 RMK AO2
Loading
Personal Weather Stations






























Interactive Weather Map New forecast layout! Learn more

10-Day Weather Forecast

Advertisements
Track Severe Weather on mobile